Ital Oriente — A8LN2 — position and weather

sailwx.info

Track history (hours):
 
Tides and Currents Weather Stations Pressure Air Temp Water Temp Dewpoint Dewpoint Depression Visibility Wind Speed Wind Dir Waves Ship Positions

Ital Oriente

Last reported at 2015-Jul-27 23:33 UTC. Time now 2015-Jul-29 13:36 UTC.
Position N 39°48' E 024°29'.

Length 222 m; draft 7.2 m.

Type: Cargo ship. MMSI: 636091278.

Date/timePositionNaut miles runAvg speedWind from/ knotsBaromVisibWave heightAir tempDewpointWater temp
2015-Jul-27 23:33N 39°48' E 024°29'1414.1
2015-Jul-27 22:33N 39°46' E 024°47'  
2015-Jul-25 00:22N 40°57' E 028°40'1 0.5
2015-Jul-24 21:26N 40°55' E 028°40'27910.4
2015-Jul-23 18:33N 37°43' E 024°19'1711.5
2015-Jul-23 17:05N 37°35' E 024°00'811.4
2015-Jul-23 16:21N 37°37' E 023°50'810.5
2015-Jul-23 15:33N 37°42' E 023°41'1111.5
2015-Jul-23 14:33N 37°52' E 023°36'5 4.6
2015-Jul-23 13:31N 37°57' E 023°36'0 0.0
2015-Jul-23 12:31N 37°57' E 023°36'0 0.0
2015-Jul-23 11:28N 37°57' E 023°36'0 0.0
2015-Jul-23 10:31N 37°57' E 023°36'0 0.0
2015-Jul-23 09:31N 37°57' E 023°36'0 0.0
2015-Jul-23 08:31N 37°57' E 023°36'0 0.0
2015-Jul-23 07:31N 37°57' E 023°36'0 0.0
2015-Jul-23 06:31N 37°57' E 023°36'0 0.0
2015-Jul-23 05:31N 37°57' E 023°36'0 0.0
2015-Jul-23 04:31N 37°57' E 023°36'0 0.0
2015-Jul-23 03:31N 37°57' E 023°36'0 0.0
2015-Jul-23 02:31N 37°57' E 023°36'0 0.0
2015-Jul-23 01:31N 37°57' E 023°36'0 0.0
2015-Jul-23 00:31N 37°57' E 023°36'0 0.0
2015-Jul-22 23:31N 37°57' E 023°36'0 0.0
2015-Jul-22 22:31N 37°57' E 023°36'0 0.0
2015-Jul-22 21:31N 37°57' E 023°36'1 1.2
2015-Jul-22 20:34N 37°56' E 023°36'5 5.3
2015-Jul-22 19:31N 37°52' E 023°32'0 0.1
2015-Jul-22 18:31N 37°51' E 023°32'0 0.0
2015-Jul-22 17:31N 37°51' E 023°32'0 0.0
2015-Jul-22 16:31N 37°51' E 023°32'0 0.0
2015-Jul-22 15:31N 37°51' E 023°32'0 0.0
2015-Jul-22 14:31N 37°51' E 023°32'0 0.0
2015-Jul-22 13:31N 37°51' E 023°32'0 0.0
2015-Jul-22 12:31N 37°51' E 023°32'3 3.0
2015-Jul-22 11:33N 37°51' E 023°36'1414.0
2015-Jul-22 10:33N 37°40' E 023°47'1714.9
2015-Jul-22 09:27N 37°36' E 024°07'1515.8
2015-Jul-22 08:29N 37°47' E 024°20'1515.6
2015-Jul-22 07:30N 37°57' E 024°35'2115.2
2015-Jul-22 06:07N 38°18' E 024°32'84 1.7
2015-Jul-20 05:30N 39°38' E 024°02'2316.6
2015-Jul-20 04:08N 39°28' E 024°29'1216.5
2015-Jul-20 03:23N 39°23' E 024°43'1416.6
2015-Jul-20 02:33N 39°17' E 024°59'  
Track history (hours):
 
Tides and Currents Weather Stations Pressure Air Temp Water Temp Dewpoint Dewpoint Depression Visibility Wind Speed Wind Dir Waves Ship Positions

Ital Oriente

Last reported at 2015-Jul-27 23:33 UTC. Time now 2015-Jul-29 13:36 UTC.
Position N 39°48' E 024°29'.

Length 222 m; draft 7.2 m.

Type: Cargo ship. MMSI: 636091278.

Date/timePositionNaut miles runAvg speedWind from/ knotsBaromVisibWave heightAir tempDewpointWater temp
2015-Jul-27 23:33N 39°48' E 024°29'1414.1
2015-Jul-27 22:33N 39°46' E 024°47'  
2015-Jul-25 00:22N 40°57' E 028°40'1 0.5
2015-Jul-24 21:26N 40°55' E 028°40'27910.4
2015-Jul-23 18:33N 37°43' E 024°19'1711.5
2015-Jul-23 17:05N 37°35' E 024°00'811.4
2015-Jul-23 16:21N 37°37' E 023°50'810.5
2015-Jul-23 15:33N 37°42' E 023°41'1111.5
2015-Jul-23 14:33N 37°52' E 023°36'5 4.6
2015-Jul-23 13:31N 37°57' E 023°36'0 0.0
2015-Jul-23 12:31N 37°57' E 023°36'0 0.0
2015-Jul-23 11:28N 37°57' E 023°36'0 0.0
2015-Jul-23 10:31N 37°57' E 023°36'0 0.0
2015-Jul-23 09:31N 37°57' E 023°36'0 0.0
2015-Jul-23 08:31N 37°57' E 023°36'0 0.0
2015-Jul-23 07:31N 37°57' E 023°36'0 0.0
2015-Jul-23 06:31N 37°57' E 023°36'0 0.0
2015-Jul-23 05:31N 37°57' E 023°36'0 0.0
2015-Jul-23 04:31N 37°57' E 023°36'0 0.0
2015-Jul-23 03:31N 37°57' E 023°36'0 0.0
2015-Jul-23 02:31N 37°57' E 023°36'0 0.0
2015-Jul-23 01:31N 37°57' E 023°36'0 0.0
2015-Jul-23 00:31N 37°57' E 023°36'0 0.0
2015-Jul-22 23:31N 37°57' E 023°36'0 0.0
2015-Jul-22 22:31N 37°57' E 023°36'0 0.0
2015-Jul-22 21:31N 37°57' E 023°36'1 1.2
2015-Jul-22 20:34N 37°56' E 023°36'5 5.3
2015-Jul-22 19:31N 37°52' E 023°32'0 0.1
2015-Jul-22 18:31N 37°51' E 023°32'0 0.0
2015-Jul-22 17:31N 37°51' E 023°32'0 0.0
2015-Jul-22 16:31N 37°51' E 023°32'0 0.0
2015-Jul-22 15:31N 37°51' E 023°32'0 0.0
2015-Jul-22 14:31N 37°51' E 023°32'0 0.0
2015-Jul-22 13:31N 37°51' E 023°32'0 0.0
2015-Jul-22 12:31N 37°51' E 023°32'3 3.0
2015-Jul-22 11:33N 37°51' E 023°36'1414.0
2015-Jul-22 10:33N 37°40' E 023°47'1714.9
2015-Jul-22 09:27N 37°36' E 024°07'1515.8
2015-Jul-22 08:29N 37°47' E 024°20'1515.6
2015-Jul-22 07:30N 37°57' E 024°35'2115.2
2015-Jul-22 06:07N 38°18' E 024°32'84 1.7
2015-Jul-20 05:30N 39°38' E 024°02'2316.6
2015-Jul-20 04:08N 39°28' E 024°29'1216.5
2015-Jul-20 03:23N 39°23' E 024°43'1416.6
2015-Jul-20 02:33N 39°17' E 024°59'  

Dump ship's entire track history